sensor_id;sensor_type;location;lat;lon;timestamp;temperature;humidity
6439;DHT22;3252;52.540;13.290;2023-03-23T00:01:12;13.00;99.20
6439;DHT22;3252;52.540;13.290;2023-03-23T00:03:15;13.00;99.30
6439;DHT22;3252;52.540;13.290;2023-03-23T00:05:22;12.90;99.40
6439;DHT22;3252;52.540;13.290;2023-03-23T00:07:25;12.90;99.40
6439;DHT22;3252;52.540;13.290;2023-03-23T00:09:30;13.00;99.50
6439;DHT22;3252;52.540;13.290;2023-03-23T00:11:35;13.00;99.60
6439;DHT22;3252;52.540;13.290;2023-03-23T00:13:37;12.90;99.60
6439;DHT22;3252;52.540;13.290;2023-03-23T00:15:39;12.90;99.70
6439;DHT22;3252;52.540;13.290;2023-03-23T00:17:42;12.90;99.80
6439;DHT22;3252;52.540;13.290;2023-03-23T00:19:45;12.80;99.90
6439;DHT22;3252;52.540;13.290;2023-03-23T00:21:52;12.80;99.90
6439;DHT22;3252;52.540;13.290;2023-03-23T00:23:54;12.80;99.90
6439;DHT22;3252;52.540;13.290;2023-03-23T00:25:58;12.80;99.90
6439;DHT22;3252;52.540;13.290;2023-03-23T00:28:01;12.80;99.90
6439;DHT22;3252;52.540;13.290;2023-03-23T00:30:04;12.70;99.90
6439;DHT22;3252;52.540;13.290;2023-03-23T00:32:07;12.70;99.90
6439;DHT22;3252;52.540;13.290;2023-03-23T00:34:14;12.70;99.90
6439;DHT22;3252;52.540;13.290;2023-03-23T00:36:19;12.70;99.90
6439;DHT22;3252;52.540;13.290;2023-03-23T00:38:24;12.70;99.90
6439;DHT22;3252;52.540;13.290;2023-03-23T00:40:28;12.70;99.90
6439;DHT22;3252;52.540;13.290;2023-03-23T00:42:32;12.60;99.90
6439;DHT22;3252;52.540;13.290;2023-03-23T00:44:37;12.60;99.90
6439;DHT22;3252;52.540;13.290;2023-03-23T00:46:40;12.60;99.90
6439;DHT22;3252;52.540;13.290;2023-03-23T00:48:47;12.60;99.90
6439;DHT22;3252;52.540;13.290;2023-03-23T00:50:51;12.60;99.90
6439;DHT22;3252;52.540;13.290;2023-03-23T00:52:55;12.60;99.90
6439;DHT22;3252;52.540;13.290;2023-03-23T00:54:59;12.50;99.90
6439;DHT22;3252;52.540;13.290;2023-03-23T00:57:01;12.50;99.90
6439;DHT22;3252;52.540;13.290;2023-03-23T00:59:05;12.50;99.90
6439;DHT22;3252;52.540;13.290;2023-03-23T01:01:08;12.40;99.90
6439;DHT22;3252;52.540;13.290;2023-03-23T01:03:11;12.40;99.90
6439;DHT22;3252;52.540;13.290;2023-03-23T01:05:19;12.30;99.90
6439;DHT22;3252;52.540;13.290;2023-03-23T01:07:21;12.30;99.90
6439;DHT22;3252;52.540;13.290;2023-03-23T01:09:24;12.30;99.90
6439;DHT22;3252;52.540;13.290;2023-03-23T01:11:27;12.20;99.90
6439;DHT22;3252;52.540;13.290;2023-03-23T01:13:30;12.20;99.90
6439;DHT22;3252;52.540;13.290;2023-03-23T01:15:34;12.20;99.90
6439;DHT22;3252;52.540;13.290;2023-03-23T01:17:36;12.20;99.90
6439;DHT22;3252;52.540;13.290;2023-03-23T01:19:38;12.20;99.90
6439;DHT22;3252;52.540;13.290;2023-03-23T01:21:43;12.20;99.90
6439;DHT22;3252;52.540;13.290;2023-03-23T01:23:45;12.10;99.90
6439;DHT22;3252;52.540;13.290;2023-03-23T01:25:48;12.10;99.90
6439;DHT22;3252;52.540;13.290;2023-03-23T01:27:51;12.10;99.90
6439;DHT22;3252;52.540;13.290;2023-03-23T01:29:53;12.10;99.90
6439;DHT22;3252;52.540;13.290;2023-03-23T01:31:57;12.00;99.90
6439;DHT22;3252;52.540;13.290;2023-03-23T01:34:00;12.10;99.90
6439;DHT22;3252;52.540;13.290;2023-03-23T01:36:04;12.00;99.90
6439;DHT22;3252;52.540;13.290;2023-03-23T01:38:08;12.00;99.90
6439;DHT22;3252;52.540;13.290;2023-03-23T01:40:11;12.00;99.90
6439;DHT22;3252;52.540;13.290;2023-03-23T01:42:14;12.00;99.90
6439;DHT22;3252;52.540;13.290;2023-03-23T01:47:00;12.00;99.90
6439;DHT22;3252;52.540;13.290;2023-03-23T01:49:07;12.00;99.90
6439;DHT22;3252;52.540;13.290;2023-03-23T01:51:13;12.00;99.90
6439;DHT22;3252;52.540;13.290;2023-03-23T01:53:18;11.90;99.90
6439;DHT22;3252;52.540;13.290;2023-03-23T01:55:22;12.00;99.90
6439;DHT22;3252;52.540;13.290;2023-03-23T01:57:26;12.00;99.90
6439;DHT22;3252;52.540;13.290;2023-03-23T01:59:32;12.00;99.90
6439;DHT22;3252;52.540;13.290;2023-03-23T02:01:52;12.00;99.90
6439;DHT22;3252;52.540;13.290;2023-03-23T02:03:57;12.00;99.90
6439;DHT22;3252;52.540;13.290;2023-03-23T02:06:00;12.00;99.90
6439;DHT22;3252;52.540;13.290;2023-03-23T02:08:23;11.90;99.90
6439;DHT22;3252;52.540;13.290;2023-03-23T02:10:26;11.90;99.90
6439;DHT22;3252;52.540;13.290;2023-03-23T02:12:28;11.90;99.90
6439;DHT22;3252;52.540;13.290;2023-03-23T02:14:31;11.90;99.90
6439;DHT22;3252;52.540;13.290;2023-03-23T02:16:42;11.90;99.90
6439;DHT22;3252;52.540;13.290;2023-03-23T02:18:59;11.90;99.90
6439;DHT22;3252;52.540;13.290;2023-03-23T02:24:09;11.90;99.90
6439;DHT22;3252;52.540;13.290;2023-03-23T02:26:24;11.90;99.90
6439;DHT22;3252;52.540;13.290;2023-03-23T02:31:24;11.90;99.90
6439;DHT22;3252;52.540;13.290;2023-03-23T02:33:38;11.90;99.90
6439;DHT22;3252;52.540;13.290;2023-03-23T02:35:45;11.90;99.90
6439;DHT22;3252;52.540;13.290;2023-03-23T02:37:56;11.90;99.90
6439;DHT22;3252;52.540;13.290;2023-03-23T02:40:06;11.90;99.90
6439;DHT22;3252;52.540;13.290;2023-03-23T02:42:14;12.00;99.90
6439;DHT22;3252;52.540;13.290;2023-03-23T02:44:19;12.00;99.90
6439;DHT22;3252;52.540;13.290;2023-03-23T02:46:25;12.00;99.90
6439;DHT22;3252;52.540;13.290;2023-03-23T02:48:30;12.00;99.90
6439;DHT22;3252;52.540;13.290;2023-03-23T02:50:36;12.00;99.90
6439;DHT22;3252;52.540;13.290;2023-03-23T02:52:40;12.00;99.90
6439;DHT22;3252;52.540;13.290;2023-03-23T02:54:47;12.00;99.90
6439;DHT22;3252;52.540;13.290;2023-03-23T02:56:50;11.90;99.90
6439;DHT22;3252;52.540;13.290;2023-03-23T02:58:58;11.90;99.90
6439;DHT22;3252;52.540;13.290;2023-03-23T03:01:46;11.80;99.90
6439;DHT22;3252;52.540;13.290;2023-03-23T03:03:51;11.80;99.90
6439;DHT22;3252;52.540;13.290;2023-03-23T03:06:01;11.90;99.90
6439;DHT22;3252;52.540;13.290;2023-03-23T03:08:15;11.90;99.90
6439;DHT22;3252;52.540;13.290;2023-03-23T03:10:24;11.90;99.90
6439;DHT22;3252;52.540;13.290;2023-03-23T03:12:34;11.90;99.90
6439;DHT22;3252;52.540;13.290;2023-03-23T03:14:44;11.90;99.90
6439;DHT22;3252;52.540;13.290;2023-03-23T03:16:56;11.90;99.90
6439;DHT22;3252;52.540;13.290;2023-03-23T03:19:05;11.90;99.90
6439;DHT22;3252;52.540;13.290;2023-03-23T03:21:12;11.90;99.90
6439;DHT22;3252;52.540;13.290;2023-03-23T03:23:22;11.90;99.90
6439;DHT22;3252;52.540;13.290;2023-03-23T03:25:27;11.90;99.90
6439;DHT22;3252;52.540;13.290;2023-03-23T03:27:32;11.90;99.90
6439;DHT22;3252;52.540;13.290;2023-03-23T03:29:51;11.90;99.90
6439;DHT22;3252;52.540;13.290;2023-03-23T03:31:56;12.00;99.90
6439;DHT22;3252;52.540;13.290;2023-03-23T03:34:01;12.00;99.90
6439;DHT22;3252;52.540;13.290;2023-03-23T03:36:06;12.00;99.90
6439;DHT22;3252;52.540;13.290;2023-03-23T03:38:14;12.00;99.90
6439;DHT22;3252;52.540;13.290;2023-03-23T03:40:19;12.00;99.90
6439;DHT22;3252;52.540;13.290;2023-03-23T03:42:24;11.90;99.90
6439;DHT22;3252;52.540;13.290;2023-03-23T03:44:28;12.00;99.90
6439;DHT22;3252;52.540;13.290;2023-03-23T03:46:31;11.90;99.90
6439;DHT22;3252;52.540;13.290;2023-03-23T03:48:34;12.00;99.90
6439;DHT22;3252;52.540;13.290;2023-03-23T03:50:36;11.90;99.90
6439;DHT22;3252;52.540;13.290;2023-03-23T03:52:38;11.90;99.90
6439;DHT22;3252;52.540;13.290;2023-03-23T03:54:43;11.90;99.90
6439;DHT22;3252;52.540;13.290;2023-03-23T03:56:45;11.90;99.90
6439;DHT22;3252;52.540;13.290;2023-03-23T03:59:12;11.90;99.90
6439;DHT22;3252;52.540;13.290;2023-03-23T04:01:26;11.90;99.90
6439;DHT22;3252;52.540;13.290;2023-03-23T04:03:32;11.90;99.90
6439;DHT22;3252;52.540;13.290;2023-03-23T04:05:48;11.80;99.90
6439;DHT22;3252;52.540;13.290;2023-03-23T04:07:52;11.80;99.90
6439;DHT22;3252;52.540;13.290;2023-03-23T04:09:56;11.80;99.90
6439;DHT22;3252;52.540;13.290;2023-03-23T04:11:58;11.70;99.90
6439;DHT22;3252;52.540;13.290;2023-03-23T04:14:23;11.80;99.90
6439;DHT22;3252;52.540;13.290;2023-03-23T04:16:28;11.80;99.90
6439;DHT22;3252;52.540;13.290;2023-03-23T04:18:32;11.80;99.90
6439;DHT22;3252;52.540;13.290;2023-03-23T04:20:35;11.80;99.90
6439;DHT22;3252;52.540;13.290;2023-03-23T04:22:39;11.80;99.90
6439;DHT22;3252;52.540;13.290;2023-03-23T04:24:44;11.80;99.90
6439;DHT22;3252;52.540;13.290;2023-03-23T04:26:54;11.80;99.90
6439;DHT22;3252;52.540;13.290;2023-03-23T04:29:01;11.80;99.90
6439;DHT22;3252;52.540;13.290;2023-03-23T04:31:23;11.70;99.90
6439;DHT22;3252;52.540;13.290;2023-03-23T04:33:33;11.70;99.90
6439;DHT22;3252;52.540;13.290;2023-03-23T04:35:35;11.70;99.90
6439;DHT22;3252;52.540;13.290;2023-03-23T04:37:45;11.70;99.90
6439;DHT22;3252;52.540;13.290;2023-03-23T04:39:50;11.70;99.90
6439;DHT22;3252;52.540;13.290;2023-03-23T04:42:02;11.70;99.90
6439;DHT22;3252;52.540;13.290;2023-03-23T04:44:23;11.70;99.90
6439;DHT22;3252;52.540;13.290;2023-03-23T04:46:39;11.60;99.90
6439;DHT22;3252;52.540;13.290;2023-03-23T04:48:45;11.60;99.90
6439;DHT22;3252;52.540;13.290;2023-03-23T04:50:54;11.60;99.90
6439;DHT22;3252;52.540;13.290;2023-03-23T04:53:03;11.60;99.90
6439;DHT22;3252;52.540;13.290;2023-03-23T04:55:08;11.50;99.90
6439;DHT22;3252;52.540;13.290;2023-03-23T04:57:14;11.50;99.90
6439;DHT22;3252;52.540;13.290;2023-03-23T04:59:25;11.50;99.90
6439;DHT22;3252;52.540;13.290;2023-03-23T05:01:58;11.40;99.90
6439;DHT22;3252;52.540;13.290;2023-03-23T05:04:05;11.50;99.90
6439;DHT22;3252;52.540;13.290;2023-03-23T05:06:08;11.50;99.90
6439;DHT22;3252;52.540;13.290;2023-03-23T05:08:11;11.50;99.90
6439;DHT22;3252;52.540;13.290;2023-03-23T05:10:16;11.50;99.90
6439;DHT22;3252;52.540;13.290;2023-03-23T05:12:20;11.50;99.90
6439;DHT22;3252;52.540;13.290;2023-03-23T05:14:33;11.50;99.90
6439;DHT22;3252;52.540;13.290;2023-03-23T05:16:42;11.40;99.90
6439;DHT22;3252;52.540;13.290;2023-03-23T05:18:48;11.40;99.90
6439;DHT22;3252;52.540;13.290;2023-03-23T05:20:52;11.40;99.90
6439;DHT22;3252;52.540;13.290;2023-03-23T05:22:57;11.30;99.90
6439;DHT22;3252;52.540;13.290;2023-03-23T05:25:06;11.20;99.90
6439;DHT22;3252;52.540;13.290;2023-03-23T05:27:13;11.20;99.90
6439;DHT22;3252;52.540;13.290;2023-03-23T05:29:23;11.20;99.90
6439;DHT22;3252;52.540;13.290;2023-03-23T05:31:32;11.20;99.90
6439;DHT22;3252;52.540;13.290;2023-03-23T05:33:35;11.20;99.90
6439;DHT22;3252;52.540;13.290;2023-03-23T05:35:37;11.20;99.90
6439;DHT22;3252;52.540;13.290;2023-03-23T05:37:40;11.20;99.90
6439;DHT22;3252;52.540;13.290;2023-03-23T05:39:44;11.20;99.90
6439;DHT22;3252;52.540;13.290;2023-03-23T05:42:03;11.20;99.90
6439;DHT22;3252;52.540;13.290;2023-03-23T05:44:18;11.20;99.90
6439;DHT22;3252;52.540;13.290;2023-03-23T05:46:25;11.20;99.90
6439;DHT22;3252;52.540;13.290;2023-03-23T05:48:31;11.20;99.90
6439;DHT22;3252;52.540;13.290;2023-03-23T05:50:33;11.20;99.90
6439;DHT22;3252;52.540;13.290;2023-03-23T05:52:38;11.20;99.90
6439;DHT22;3252;52.540;13.290;2023-03-23T05:54:44;11.20;99.90
6439;DHT22;3252;52.540;13.290;2023-03-23T05:56:47;11.20;99.90
6439;DHT22;3252;52.540;13.290;2023-03-23T05:59:16;11.20;99.90
6439;DHT22;3252;52.540;13.290;2023-03-23T06:01:20;11.20;99.90
6439;DHT22;3252;52.540;13.290;2023-03-23T06:03:25;11.20;99.90
6439;DHT22;3252;52.540;13.290;2023-03-23T06:05:44;11.20;99.90
6439;DHT22;3252;52.540;13.290;2023-03-23T06:07:50;11.20;99.90
6439;DHT22;3252;52.540;13.290;2023-03-23T06:09:53;11.10;99.90
6439;DHT22;3252;52.540;13.290;2023-03-23T06:11:58;11.10;99.90
6439;DHT22;3252;52.540;13.290;2023-03-23T06:14:11;11.10;99.90
6439;DHT22;3252;52.540;13.290;2023-03-23T06:16:13;11.10;99.90
6439;DHT22;3252;52.540;13.290;2023-03-23T06:18:26;11.10;99.90
6439;DHT22;3252;52.540;13.290;2023-03-23T06:20:53;11.10;99.90
6439;DHT22;3252;52.540;13.290;2023-03-23T06:23:17;11.10;99.90
6439;DHT22;3252;52.540;13.290;2023-03-23T06:25:20;11.00;99.90
6439;DHT22;3252;52.540;13.290;2023-03-23T06:27:23;11.00;99.90
6439;DHT22;3252;52.540;13.290;2023-03-23T06:29:26;11.00;99.90
6439;DHT22;3252;52.540;13.290;2023-03-23T06:31:30;11.00;99.90
6439;DHT22;3252;52.540;13.290;2023-03-23T06:33:38;11.00;99.90
6439;DHT22;3252;52.540;13.290;2023-03-23T06:36:02;11.00;99.90
6439;DHT22;3252;52.540;13.290;2023-03-23T06:38:25;11.00;99.90
6439;DHT22;3252;52.540;13.290;2023-03-23T06:40:29;11.10;99.90
6439;DHT22;3252;52.540;13.290;2023-03-23T06:42:32;11.00;99.90
6439;DHT22;3252;52.540;13.290;2023-03-23T06:44:58;11.10;99.90
6439;DHT22;3252;52.540;13.290;2023-03-23T06:47:01;11.10;99.90
6439;DHT22;3252;52.540;13.290;2023-03-23T06:49:09;11.10;99.90
6439;DHT22;3252;52.540;13.290;2023-03-23T06:51:21;11.10;99.90
6439;DHT22;3252;52.540;13.290;2023-03-23T06:53:26;11.10;99.90
6439;DHT22;3252;52.540;13.290;2023-03-23T06:55:31;11.10;99.90
6439;DHT22;3252;52.540;13.290;2023-03-23T06:57:33;11.20;99.90
6439;DHT22;3252;52.540;13.290;2023-03-23T06:59:36;11.10;99.90
6439;DHT22;3252;52.540;13.290;2023-03-23T07:01:40;11.10;99.90
6439;DHT22;3252;52.540;13.290;2023-03-23T07:03:43;11.10;99.90
6439;DHT22;3252;52.540;13.290;2023-03-23T07:05:49;11.00;99.90
6439;DHT22;3252;52.540;13.290;2023-03-23T07:07:54;11.10;99.90
6439;DHT22;3252;52.540;13.290;2023-03-23T07:10:09;11.10;99.90
6439;DHT22;3252;52.540;13.290;2023-03-23T07:12:12;11.10;99.90
6439;DHT22;3252;52.540;13.290;2023-03-23T07:14:20;11.10;99.90
6439;DHT22;3252;52.540;13.290;2023-03-23T07:16:24;11.20;99.90
6439;DHT22;3252;52.540;13.290;2023-03-23T07:18:27;11.20;99.90
6439;DHT22;3252;52.540;13.290;2023-03-23T07:20:32;11.20;99.90
6439;DHT22;3252;52.540;13.290;2023-03-23T07:22:36;11.20;99.90
6439;DHT22;3252;52.540;13.290;2023-03-23T07:24:48;11.20;99.90
6439;DHT22;3252;52.540;13.290;2023-03-23T07:26:59;11.20;99.90
6439;DHT22;3252;52.540;13.290;2023-03-23T07:29:02;11.20;99.90
6439;DHT22;3252;52.540;13.290;2023-03-23T07:31:10;11.30;99.90
6439;DHT22;3252;52.540;13.290;2023-03-23T07:33:12;11.30;99.90
6439;DHT22;3252;52.540;13.290;2023-03-23T07:35:15;11.30;99.90
6439;DHT22;3252;52.540;13.290;2023-03-23T07:37:29;11.30;99.90
6439;DHT22;3252;52.540;13.290;2023-03-23T07:39:34;11.30;99.90
6439;DHT22;3252;52.540;13.290;2023-03-23T07:41:37;11.30;99.90
6439;DHT22;3252;52.540;13.290;2023-03-23T07:43:50;11.40;99.90
6439;DHT22;3252;52.540;13.290;2023-03-23T07:46:07;11.40;99.90
6439;DHT22;3252;52.540;13.290;2023-03-23T07:48:24;11.40;99.90
6439;DHT22;3252;52.540;13.290;2023-03-23T07:50:27;11.40;99.90
6439;DHT22;3252;52.540;13.290;2023-03-23T07:52:30;11.30;99.90
6439;DHT22;3252;52.540;13.290;2023-03-23T07:54:35;11.40;99.90
6439;DHT22;3252;52.540;13.290;2023-03-23T07:56:42;11.40;99.90
6439;DHT22;3252;52.540;13.290;2023-03-23T07:59:07;11.50;99.90
6439;DHT22;3252;52.540;13.290;2023-03-23T08:01:12;11.60;99.90
6439;DHT22;3252;52.540;13.290;2023-03-23T08:03:17;11.60;99.90
6439;DHT22;3252;52.540;13.290;2023-03-23T08:05:50;11.60;99.90
6439;DHT22;3252;52.540;13.290;2023-03-23T08:08:21;11.60;99.90
6439;DHT22;3252;52.540;13.290;2023-03-23T08:10:44;11.60;99.90
6439;DHT22;3252;52.540;13.290;2023-03-23T08:13:19;11.60;99.90
6439;DHT22;3252;52.540;13.290;2023-03-23T08:15:41;11.70;99.90
6439;DHT22;3252;52.540;13.290;2023-03-23T08:18:02;11.70;99.90
6439;DHT22;3252;52.540;13.290;2023-03-23T08:20:28;11.70;99.90
6439;DHT22;3252;52.540;13.290;2023-03-23T08:22:45;11.70;99.90
6439;DHT22;3252;52.540;13.290;2023-03-23T08:25:17;11.70;99.90
6439;DHT22;3252;52.540;13.290;2023-03-23T08:27:39;11.70;99.90
6439;DHT22;3252;52.540;13.290;2023-03-23T08:30:05;11.70;99.90
6439;DHT22;3252;52.540;13.290;2023-03-23T08:32:27;11.60;99.90
6439;DHT22;3252;52.540;13.290;2023-03-23T08:34:49;11.60;99.90
6439;DHT22;3252;52.540;13.290;2023-03-23T08:37:13;11.60;99.90
6439;DHT22;3252;52.540;13.290;2023-03-23T08:39:22;11.70;99.90
6439;DHT22;3252;52.540;13.290;2023-03-23T08:42:03;11.70;99.90
6439;DHT22;3252;52.540;13.290;2023-03-23T08:44:49;11.80;99.90
6439;DHT22;3252;52.540;13.290;2023-03-23T08:47:10;11.90;99.90
6439;DHT22;3252;52.540;13.290;2023-03-23T08:49:32;12.00;99.90
6439;DHT22;3252;52.540;13.290;2023-03-23T08:52:07;12.00;99.90
6439;DHT22;3252;52.540;13.290;2023-03-23T08:54:29;12.00;99.90
6439;DHT22;3252;52.540;13.290;2023-03-23T08:56:32;12.10;99.90
6439;DHT22;3252;52.540;13.290;2023-03-23T08:58:57;12.00;99.90
6439;DHT22;3252;52.540;13.290;2023-03-23T09:01:12;12.00;99.90
6439;DHT22;3252;52.540;13.290;2023-03-23T09:03:28;12.20;99.90
6439;DHT22;3252;52.540;13.290;2023-03-23T09:05:47;12.30;99.90
6439;DHT22;3252;52.540;13.290;2023-03-23T09:08:02;12.40;99.90
6439;DHT22;3252;52.540;13.290;2023-03-23T09:10:07;12.40;99.90
6439;DHT22;3252;52.540;13.290;2023-03-23T09:12:10;12.40;99.90
6439;DHT22;3252;52.540;13.290;2023-03-23T09:14:12;12.40;99.90
6439;DHT22;3252;52.540;13.290;2023-03-23T09:16:16;12.40;99.90
6439;DHT22;3252;52.540;13.290;2023-03-23T09:18:19;12.40;99.90
6439;DHT22;3252;52.540;13.290;2023-03-23T09:20:24;12.40;99.90
6439;DHT22;3252;52.540;13.290;2023-03-23T09:22:28;12.40;99.90
6439;DHT22;3252;52.540;13.290;2023-03-23T09:24:31;12.50;99.90
6439;DHT22;3252;52.540;13.290;2023-03-23T09:26:33;12.50;99.90
6439;DHT22;3252;52.540;13.290;2023-03-23T09:28:36;12.70;99.90
6439;DHT22;3252;52.540;13.290;2023-03-23T09:30:40;12.90;99.90
6439;DHT22;3252;52.540;13.290;2023-03-23T09:32:45;13.20;99.90
6439;DHT22;3252;52.540;13.290;2023-03-23T09:34:48;13.70;99.90
6439;DHT22;3252;52.540;13.290;2023-03-23T09:36:52;14.00;99.90
6439;DHT22;3252;52.540;13.290;2023-03-23T09:38:54;14.40;99.90
6439;DHT22;3252;52.540;13.290;2023-03-23T09:41:03;14.60;99.90
6439;DHT22;3252;52.540;13.290;2023-03-23T09:43:19;14.80;99.90
6439;DHT22;3252;52.540;13.290;2023-03-23T09:45:28;15.50;99.90
6439;DHT22;3252;52.540;13.290;2023-03-23T09:47:38;15.50;99.90
6439;DHT22;3252;52.540;13.290;2023-03-23T09:49:50;15.40;99.90
6439;DHT22;3252;52.540;13.290;2023-03-23T09:51:57;15.60;99.90
6439;DHT22;3252;52.540;13.290;2023-03-23T09:54:09;15.30;99.90
6439;DHT22;3252;52.540;13.290;2023-03-23T09:56:15;15.10;99.90
6439;DHT22;3252;52.540;13.290;2023-03-23T09:58:25;15.10;99.90
6439;DHT22;3252;52.540;13.290;2023-03-23T10:00:34;15.20;99.90
6439;DHT22;3252;52.540;13.290;2023-03-23T10:02:41;14.90;99.90
6439;DHT22;3252;52.540;13.290;2023-03-23T10:04:48;14.70;99.90
6439;DHT22;3252;52.540;13.290;2023-03-23T10:06:51;14.60;99.90
6439;DHT22;3252;52.540;13.290;2023-03-23T10:08:56;14.30;99.90
6439;DHT22;3252;52.540;13.290;2023-03-23T10:11:02;14.20;99.90
6439;DHT22;3252;52.540;13.290;2023-03-23T10:13:09;14.10;99.90
6439;DHT22;3252;52.540;13.290;2023-03-23T10:15:23;14.10;99.90
6439;DHT22;3252;52.540;13.290;2023-03-23T10:17:33;14.00;99.90
6439;DHT22;3252;52.540;13.290;2023-03-23T10:19:50;14.00;99.90
6439;DHT22;3252;52.540;13.290;2023-03-23T10:21:59;13.90;99.90
6439;DHT22;3252;52.540;13.290;2023-03-23T10:24:09;13.90;99.90
6439;DHT22;3252;52.540;13.290;2023-03-23T10:26:28;14.00;99.90
6439;DHT22;3252;52.540;13.290;2023-03-23T10:28:37;14.10;99.90
6439;DHT22;3252;52.540;13.290;2023-03-23T10:30:41;14.30;99.90
6439;DHT22;3252;52.540;13.290;2023-03-23T10:32:47;14.60;99.90
6439;DHT22;3252;52.540;13.290;2023-03-23T10:34:57;14.50;99.90
6439;DHT22;3252;52.540;13.290;2023-03-23T10:37:05;14.70;99.90
6439;DHT22;3252;52.540;13.290;2023-03-23T10:39:12;14.80;99.90
6439;DHT22;3252;52.540;13.290;2023-03-23T10:41:18;15.00;99.90
6439;DHT22;3252;52.540;13.290;2023-03-23T10:43:20;15.00;99.90
6439;DHT22;3252;52.540;13.290;2023-03-23T10:45:26;14.70;99.90
6439;DHT22;3252;52.540;13.290;2023-03-23T10:47:30;14.70;99.90
6439;DHT22;3252;52.540;13.290;2023-03-23T10:49:38;14.70;99.90
6439;DHT22;3252;52.540;13.290;2023-03-23T10:51:44;14.70;99.90
6439;DHT22;3252;52.540;13.290;2023-03-23T10:53:58;14.70;99.90
6439;DHT22;3252;52.540;13.290;2023-03-23T10:56:01;14.50;99.90
6439;DHT22;3252;52.540;13.290;2023-03-23T10:58:06;14.50;99.90
6439;DHT22;3252;52.540;13.290;2023-03-23T11:00:17;14.60;99.90
6439;DHT22;3252;52.540;13.290;2023-03-23T11:02:23;14.50;99.90
6439;DHT22;3252;52.540;13.290;2023-03-23T11:04:26;14.50;99.90
6439;DHT22;3252;52.540;13.290;2023-03-23T11:06:31;14.50;99.90
6439;DHT22;3252;52.540;13.290;2023-03-23T11:08:36;14.40;99.90
6439;DHT22;3252;52.540;13.290;2023-03-23T11:10:47;14.40;99.90
6439;DHT22;3252;52.540;13.290;2023-03-23T11:12:50;14.30;99.90
6439;DHT22;3252;52.540;13.290;2023-03-23T11:15:04;14.30;99.90
6439;DHT22;3252;52.540;13.290;2023-03-23T11:17:22;14.30;99.90
6439;DHT22;3252;52.540;13.290;2023-03-23T11:19:26;14.30;99.90
6439;DHT22;3252;52.540;13.290;2023-03-23T11:21:32;14.30;99.90
6439;DHT22;3252;52.540;13.290;2023-03-23T11:23:36;14.40;99.90
6439;DHT22;3252;52.540;13.290;2023-03-23T11:26:08;14.40;99.90
6439;DHT22;3252;52.540;13.290;2023-03-23T11:28:10;14.50;99.90
6439;DHT22;3252;52.540;13.290;2023-03-23T11:30:21;14.60;99.90
6439;DHT22;3252;52.540;13.290;2023-03-23T11:32:26;14.70;99.90
6439;DHT22;3252;52.540;13.290;2023-03-23T11:34:31;14.90;99.90
6439;DHT22;3252;52.540;13.290;2023-03-23T11:36:36;14.90;99.90
6439;DHT22;3252;52.540;13.290;2023-03-23T11:38:39;14.80;99.90
6439;DHT22;3252;52.540;13.290;2023-03-23T11:40:47;14.90;99.90
6439;DHT22;3252;52.540;13.290;2023-03-23T11:42:58;15.00;99.90
6439;DHT22;3252;52.540;13.290;2023-03-23T11:45:14;15.10;99.90
6439;DHT22;3252;52.540;13.290;2023-03-23T11:47:22;15.00;99.90
6439;DHT22;3252;52.540;13.290;2023-03-23T11:49:32;15.10;99.90
6439;DHT22;3252;52.540;13.290;2023-03-23T11:51:41;15.20;99.90
6439;DHT22;3252;52.540;13.290;2023-03-23T11:53:49;15.10;99.90
6439;DHT22;3252;52.540;13.290;2023-03-23T11:56:08;15.10;99.90
6439;DHT22;3252;52.540;13.290;2023-03-23T11:58:15;15.20;99.90
6439;DHT22;3252;52.540;13.290;2023-03-23T12:00:20;15.20;99.90
6439;DHT22;3252;52.540;13.290;2023-03-23T12:02:35;15.20;99.90
6439;DHT22;3252;52.540;13.290;2023-03-23T12:05:05;15.20;99.90
6439;DHT22;3252;52.540;13.290;2023-03-23T12:07:19;15.30;99.90
6439;DHT22;3252;52.540;13.290;2023-03-23T12:09:33;15.30;99.90
6439;DHT22;3252;52.540;13.290;2023-03-23T12:11:45;15.30;99.90
6439;DHT22;3252;52.540;13.290;2023-03-23T12:14:08;15.20;99.90
6439;DHT22;3252;52.540;13.290;2023-03-23T12:16:20;15.20;99.90
6439;DHT22;3252;52.540;13.290;2023-03-23T12:18:30;15.10;99.90
6439;DHT22;3252;52.540;13.290;2023-03-23T12:20:41;15.10;99.90
6439;DHT22;3252;52.540;13.290;2023-03-23T12:22:53;15.10;99.90
6439;DHT22;3252;52.540;13.290;2023-03-23T12:25:05;15.10;99.90
6439;DHT22;3252;52.540;13.290;2023-03-23T12:27:18;15.10;99.90
6439;DHT22;3252;52.540;13.290;2023-03-23T12:29:34;15.00;99.90
6439;DHT22;3252;52.540;13.290;2023-03-23T12:31:44;15.10;99.90
6439;DHT22;3252;52.540;13.290;2023-03-23T12:33:54;15.10;99.90
6439;DHT22;3252;52.540;13.290;2023-03-23T12:36:06;15.00;99.90
6439;DHT22;3252;52.540;13.290;2023-03-23T12:38:25;15.00;99.90
6439;DHT22;3252;52.540;13.290;2023-03-23T12:40:49;15.00;99.90
6439;DHT22;3252;52.540;13.290;2023-03-23T12:42:56;15.00;99.90
6439;DHT22;3252;52.540;13.290;2023-03-23T12:45:07;15.00;99.90
6439;DHT22;3252;52.540;13.290;2023-03-23T12:47:27;15.10;99.90
6439;DHT22;3252;52.540;13.290;2023-03-23T12:49:34;15.10;99.90
6439;DHT22;3252;52.540;13.290;2023-03-23T12:51:41;15.10;99.90
6439;DHT22;3252;52.540;13.290;2023-03-23T12:53:50;15.20;99.90
6439;DHT22;3252;52.540;13.290;2023-03-23T12:56:15;15.40;99.90
6439;DHT22;3252;52.540;13.290;2023-03-23T12:58:21;15.60;99.90
6439;DHT22;3252;52.540;13.290;2023-03-23T13:00:29;15.80;99.60
6439;DHT22;3252;52.540;13.290;2023-03-23T13:02:37;16.10;99.90
6439;DHT22;3252;52.540;13.290;2023-03-23T13:04:45;16.30;99.00
6439;DHT22;3252;52.540;13.290;2023-03-23T13:06:48;16.50;98.20
6439;DHT22;3252;52.540;13.290;2023-03-23T13:08:54;16.70;97.70
6439;DHT22;3252;52.540;13.290;2023-03-23T13:11:00;16.90;97.90
6439;DHT22;3252;52.540;13.290;2023-03-23T13:13:04;17.10;96.90
6439;DHT22;3252;52.540;13.290;2023-03-23T13:15:18;17.30;96.10
6439;DHT22;3252;52.540;13.290;2023-03-23T13:17:34;17.40;94.70
6439;DHT22;3252;52.540;13.290;2023-03-23T13:19:53;17.70;95.30
6439;DHT22;3252;52.540;13.290;2023-03-23T13:22:02;18.00;94.70
6439;DHT22;3252;52.540;13.290;2023-03-23T13:24:08;18.30;92.50
6439;DHT22;3252;52.540;13.290;2023-03-23T13:26:13;18.40;92.20
6439;DHT22;3252;52.540;13.290;2023-03-23T13:28:17;18.20;92.20
6439;DHT22;3252;52.540;13.290;2023-03-23T13:30:22;18.10;91.10
6439;DHT22;3252;52.540;13.290;2023-03-23T13:32:34;18.70;89.70
6439;DHT22;3252;52.540;13.290;2023-03-23T13:34:39;18.90;84.40
6439;DHT22;3252;52.540;13.290;2023-03-23T13:36:43;19.50;80.00
6439;DHT22;3252;52.540;13.290;2023-03-23T13:38:48;19.80;81.20
6439;DHT22;3252;52.540;13.290;2023-03-23T13:40:51;21.10;68.00
6439;DHT22;3252;52.540;13.290;2023-03-23T13:42:57;20.70;62.90
6439;DHT22;3252;52.540;13.290;2023-03-23T13:45:18;20.70;62.90
6439;DHT22;3252;52.540;13.290;2023-03-23T13:47:26;19.90;66.10
6439;DHT22;3252;52.540;13.290;2023-03-23T13:49:32;19.50;67.40
6439;DHT22;3252;52.540;13.290;2023-03-23T13:51:36;20.10;68.00
6439;DHT22;3252;52.540;13.290;2023-03-23T13:53:50;20.50;59.40
6439;DHT22;3252;52.540;13.290;2023-03-23T13:56:06;19.40;62.30